Skip to main content

NOAA/GLERL Met Station at Chicago, IL

Previous 3 Hours (2 minute increments)
See also Previous 5 Days (top of hour)
Jump down to Data
Switch to [English][Metric]
Zoom: Click and drag, Pan: shift-click and drag, Unzoom: double-click, Unzoom All




See also 1-day windrose plot


NOAA/GLERL Met Station at Chicago, IL

Previous 3 Hours (2 minute increments)
See also Previous 5 Days (top of hour only)
Jump up to Graphs
Switch to [English][Metric]
                  Wind  Wind  Wind   Air   Dew   Rel
                   Spd   Gst   Dir  Temp    Pt   Hum
YYYY-MM-DD   CST   m/s   m/s   deg     C     C     %
2018-02-17 14:50   6.4   6.6   197   1.5  -2.0  77.6
2018-02-17 14:48   6.7   7.2   191   1.6  -2.1  76.3
2018-02-17 14:46   6.8   7.2   189   1.6  -2.2  75.6
2018-02-17 14:44   6.6   6.9   190   1.6  -2.5  74.4
2018-02-17 14:42   7.2   7.6   190   1.6  -2.3  75.2
2018-02-17 14:40   7.2   7.5   187   1.5  -2.3  75.7
2018-02-17 14:38   7.2   7.6   185   1.5  -2.3  75.8
2018-02-17 14:36   7.2   7.7   181   1.5  -2.3  76.1
2018-02-17 14:34   6.5   7.3   175   1.5  -2.3  75.6
2018-02-17 14:32   5.6   6.4   168   1.5  -2.4  75.0
2018-02-17 14:30   5.4   6.2   161   1.5  -2.4  75.0
2018-02-17 14:28   5.8   6.8   157   1.5  -2.4  75.3
2018-02-17 14:26   5.9   6.4   158   1.4  -2.4  75.8
2018-02-17 14:24   5.4   6.4   156   1.5  -2.3  75.7
2018-02-17 14:22   5.0   5.5   156   1.5  -2.4  75.2
2018-02-17 14:20   4.2   5.4   161   1.5  -2.5  74.6
2018-02-17 14:18   3.6   5.1   160   1.5  -2.5  74.7
2018-02-17 14:16   4.2   5.3   162   1.5  -2.5  74.6
2018-02-17 14:14   3.7   4.7   159   1.5  -2.5  74.5
2018-02-17 14:12   4.2   5.2   167   1.5  -2.6  74.3
2018-02-17 14:10   4.2   5.1   166   1.5  -2.8  73.3
2018-02-17 14:08   3.9   4.6   168   1.6  -2.8  72.3
2018-02-17 14:06   4.4   4.7   175   1.6  -3.1  71.1
2018-02-17 14:04   4.8   5.0   179   1.7  -3.0  71.1
2018-02-17 14:02   4.9   5.4   198   1.7  -3.0  70.8
2018-02-17 14:00   5.0   5.5   206   1.6  -2.8  72.5
2018-02-17 13:58   4.2   4.6   200   1.6  -2.7  73.2
2018-02-17 13:56   4.4   5.0   203   1.6  -3.0  71.4
2018-02-17 13:54   5.2   6.2   207   1.6  -3.1  71.1
2018-02-17 13:52   4.8   5.3   206   1.6  -2.9  72.0
2018-02-17 13:50   5.0   5.8   201   1.5  -2.8  72.9
2018-02-17 13:48   5.2   5.6   195   1.5  -3.0  72.0
2018-02-17 13:46   5.6   6.4   197   1.5  -3.1  71.3
2018-02-17 13:44   5.5   6.0   198   1.5  -3.1  71.4
2018-02-17 13:42   5.3   5.5   190   1.4  -3.0  72.5
2018-02-17 13:40   5.6   5.9   190   1.3  -3.0  73.2
2018-02-17 13:38   5.3   6.2   193   1.4  -2.9  72.8
2018-02-17 13:36   5.8   6.1   198   1.3  -3.2  72.0
2018-02-17 13:34   6.3   6.8   196   1.3  -3.2  72.2
2018-02-17 13:32   6.7   7.0   196   1.3  -3.1  72.5
2018-02-17 13:30   6.2   6.8   196   1.3  -3.2  71.7
2018-02-17 13:28   6.5   6.8   196   1.3  -3.0  72.9
2018-02-17 13:26   5.6   6.0   198   1.3  -3.2  72.0
2018-02-17 13:24   6.1   6.5   196   1.3  -3.3  71.6
2018-02-17 13:22   6.3   6.7   194   1.2  -3.3  72.1
2018-02-17 13:20   6.3   6.7   196   1.2  -3.1  73.2
2018-02-17 13:18   5.5   6.0   192   1.2  -3.0  73.3
2018-02-17 13:16   6.1   6.6   193   1.2  -3.1  73.1
2018-02-17 13:14   5.8   6.4   196   1.2  -3.1  73.1
2018-02-17 13:12   5.4   5.7   191   1.2  -3.4  71.3
2018-02-17 13:10   6.2   6.7   201   1.3  -3.4  70.7
2018-02-17 13:08   6.1   6.9   198   1.3  -3.6  70.1
2018-02-17 13:06   7.0   7.6   202   1.3  -3.8  69.0
2018-02-17 13:04   7.1   7.5   208   1.2  -3.7  69.6
2018-02-17 13:02   7.2   8.2   207   1.2  -3.7  69.6
2018-02-17 13:00   7.5   8.6   211   1.3  -4.0  67.8
2018-02-17 12:58   8.1   8.8   212   1.2  -3.9  68.6
2018-02-17 12:56   7.6   8.7   205   1.2  -3.8  69.5
2018-02-17 12:54   7.1   7.4   207   1.2  -3.9  68.7
2018-02-17 12:52   8.0   8.7   206   1.2  -3.8  69.3
2018-02-17 12:50   6.1   7.9   202   1.2  -3.6  70.1
2018-02-17 12:48   5.7   6.3   201   1.1  -3.7  70.3
2018-02-17 12:46   5.6   6.9   202   1.1  -3.6  70.8
2018-02-17 12:44   6.0   6.6   202   1.0  -3.8  70.4
2018-02-17 12:42   6.1   6.8   199   1.0  -3.9  70.0
2018-02-17 12:40   6.0   6.5   196   1.0  -4.0  69.2
2018-02-17 12:38   5.2   6.3   197   1.0  -4.2  68.4
2018-02-17 12:36   5.2   5.8   196   1.0  -4.1  68.6
2018-02-17 12:34   5.6   6.3   194   0.9  -4.1  69.5
2018-02-17 12:32   5.7   6.3   199   1.0  -4.1  69.0
2018-02-17 12:30   5.9   7.4   204   1.0  -4.1  69.0
2018-02-17 12:28   6.0   6.7   203   1.0  -4.3  67.8
2018-02-17 12:26   6.6   7.2   206   1.0  -4.2  68.0
2018-02-17 12:24   6.4   7.1   200   0.9  -4.2  68.5
2018-02-17 12:22   6.3   7.3   202   0.9  -4.2  68.5
2018-02-17 12:20   6.2   6.7   203   0.9  -4.3  68.0
2018-02-17 12:18   6.7   7.5   209   0.9  -4.6  66.9
2018-02-17 12:16   7.6   8.6   209   0.9  -4.5  67.3
2018-02-17 12:14   8.0   8.7   208   0.8  -4.3  68.6
2018-02-17 12:12   6.7   7.3   204   0.8  -4.1  70.0
2018-02-17 12:10   6.8   7.2   206   0.7  -4.1  70.5
2018-02-17 12:08   6.9   7.9   204   0.7  -4.2  69.9
2018-02-17 12:06   6.4   7.3   207   0.7  -4.2  69.8
2018-02-17 12:04   6.5   7.2   207   0.7  -4.1  70.0
2018-02-17 12:02   7.3   8.1   209   0.6  -4.2  70.5
2018-02-17 12:00   6.0   6.6   207   0.6  -4.2  70.2
2018-02-17 11:58   6.6   7.5   210   0.5  -4.3  70.4
2018-02-17 11:56   6.9   7.4   208   0.5  -4.2  71.0
2018-02-17 11:54   6.7   7.3   206   0.4  -4.2  71.1
2018-02-17 11:52   6.1   6.5   209   0.4  -4.2  71.3
2018-02-17 11:50   5.6   6.3   208   0.3  -4.3  71.5